Cape Peony — 3FDX6 — position and weather

sailwx.info

Track history (hours):
 
Tides and Currents Weather Stations Pressure Air Temp Water Temp Dewpoint Dewpoint Depression Visibility Wind Speed Wind Dir Waves Ship Positions

Cape Peony

Last reported at 2016-Jun-28 07:33 UTC. Time now 2016-Jun-28 07:58 UTC.
Position N 34°40' E 140°06'.

Length 292 m; draft 13.1 m.

Type: Cargo ship. MMSI: 373590000.

Date/timePositionNaut miles runAvg speedWind from/ knotsBaromVisibWave heightAir tempDewpointWater temp
2016-Jun-28 07:33N 34°40' E 140°06'1211.6
2016-Jun-28 06:31N 34°47' E 140°18'2311.4
2016-Jun-28 04:31N 35°02' E 140°39'2311.5
2016-Jun-28 02:33N 35°20' E 140°56'34 9.9
2016-Jun-27 23:04N 35°54' E 140°59'611.6
2016-Jun-27 22:33N 35°57' E 140°52'8 7.8
2016-Jun-27 21:33N 35°58' E 140°43'3 1.6
2016-Jun-27 19:33N 35°55' E 140°41'0 0.0
2016-Jun-27 18:30N 35°55' E 140°41'0 0.0
2016-Jun-27 17:33N 35°55' E 140°41'0 0.0
2016-Jun-27 16:33N 35°55' E 140°41'0 0.0
2016-Jun-27 15:30N 35°55' E 140°41'0 0.0
2016-Jun-27 14:27N 35°55' E 140°41'0 0.0
2016-Jun-27 13:33N 35°55' E 140°41'0 0.0
2016-Jun-27 12:18N 35°55' E 140°41'0 0.0
2016-Jun-27 11:06N 35°55' E 140°41'0 0.0
2016-Jun-27 09:15N 35°55' E 140°41'0 0.0
2016-Jun-27 08:33N 35°55' E 140°41'0 0.0
2016-Jun-27 07:30N 35°55' E 140°41'0 0.0
2016-Jun-27 06:33N 35°55' E 140°41'0 0.0
2016-Jun-27 05:33N 35°55' E 140°41'0 0.0
2016-Jun-27 04:33N 35°55' E 140°41'0 0.0
2016-Jun-27 03:33N 35°55' E 140°41'0 0.0
2016-Jun-27 02:33N 35°55' E 140°41'0 0.0
2016-Jun-27 01:30N 35°55' E 140°41'0 0.0
2016-Jun-26 22:31N 35°55' E 140°41'0 0.0
2016-Jun-26 21:31N 35°55' E 140°41'0 0.0
2016-Jun-26 20:31N 35°55' E 140°41'0 0.0
2016-Jun-26 19:31N 35°55' E 140°41'0 0.0
2016-Jun-26 18:28N 35°55' E 140°41'0 0.0
2016-Jun-26 17:31N 35°55' E 140°41'0 0.0
2016-Jun-26 16:31N 35°55' E 140°41'0 0.0
2016-Jun-26 15:31N 35°55' E 140°41'0 0.0
2016-Jun-26 14:28N 35°55' E 140°41'0 0.0
2016-Jun-26 13:10N 35°55' E 140°41'0 0.0
2016-Jun-26 12:31N 35°55' E 140°41'0 0.0
2016-Jun-26 11:31N 35°55' E 140°41'0 0.0
2016-Jun-26 10:28N 35°55' E 140°41'0 0.0
2016-Jun-26 09:31N 35°55' E 140°41'0 0.0
2016-Jun-26 08:31N 35°55' E 140°41'0 0.0
2016-Jun-26 07:31N 35°55' E 140°41'0 0.0
2016-Jun-26 05:28N 35°55' E 140°41'0 0.0
2016-Jun-26 04:16N 35°55' E 140°41'0 0.0
2016-Jun-26 03:28N 35°55' E 140°41'0 0.0
2016-Jun-26 02:16N 35°55' E 140°41'0 0.0
2016-Jun-26 00:25N 35°55' E 140°41'0 0.0
2016-Jun-25 23:16N 35°55' E 140°41'0 0.0
2016-Jun-25 22:31N 35°55' E 140°41'0 0.0
2016-Jun-25 21:28N 35°55' E 140°41'0 0.0
2016-Jun-25 20:25N 35°55' E 140°41'0 0.0
2016-Jun-25 19:16N 35°55' E 140°41'0 0.0
2016-Jun-25 18:25N 35°55' E 140°41'0 0.0
2016-Jun-25 13:31N 35°55' E 140°41'1 1.0
2016-Jun-25 12:33N 35°56' E 140°42'7 6.6
2016-Jun-25 11:33N 36°01' E 140°47'5 5.0
2016-Jun-25 10:33N 36°00' E 140°53'6 6.0
2016-Jun-25 09:32N 36°00' E 141°01'  
Track history (hours):
 
Tides and Currents Weather Stations Pressure Air Temp Water Temp Dewpoint Dewpoint Depression Visibility Wind Speed Wind Dir Waves Ship Positions

Cape Peony

Last reported at 2016-Jun-28 07:33 UTC. Time now 2016-Jun-28 07:58 UTC.
Position N 34°40' E 140°06'.

Length 292 m; draft 13.1 m.

Type: Cargo ship. MMSI: 373590000.

Date/timePositionNaut miles runAvg speedWind from/ knotsBaromVisibWave heightAir tempDewpointWater temp
2016-Jun-28 07:33N 34°40' E 140°06'1211.6
2016-Jun-28 06:31N 34°47' E 140°18'2311.4
2016-Jun-28 04:31N 35°02' E 140°39'2311.5
2016-Jun-28 02:33N 35°20' E 140°56'34 9.9
2016-Jun-27 23:04N 35°54' E 140°59'611.6
2016-Jun-27 22:33N 35°57' E 140°52'8 7.8
2016-Jun-27 21:33N 35°58' E 140°43'3 1.6
2016-Jun-27 19:33N 35°55' E 140°41'0 0.0
2016-Jun-27 18:30N 35°55' E 140°41'0 0.0
2016-Jun-27 17:33N 35°55' E 140°41'0 0.0
2016-Jun-27 16:33N 35°55' E 140°41'0 0.0
2016-Jun-27 15:30N 35°55' E 140°41'0 0.0
2016-Jun-27 14:27N 35°55' E 140°41'0 0.0
2016-Jun-27 13:33N 35°55' E 140°41'0 0.0
2016-Jun-27 12:18N 35°55' E 140°41'0 0.0
2016-Jun-27 11:06N 35°55' E 140°41'0 0.0
2016-Jun-27 09:15N 35°55' E 140°41'0 0.0
2016-Jun-27 08:33N 35°55' E 140°41'0 0.0
2016-Jun-27 07:30N 35°55' E 140°41'0 0.0
2016-Jun-27 06:33N 35°55' E 140°41'0 0.0
2016-Jun-27 05:33N 35°55' E 140°41'0 0.0
2016-Jun-27 04:33N 35°55' E 140°41'0 0.0
2016-Jun-27 03:33N 35°55' E 140°41'0 0.0
2016-Jun-27 02:33N 35°55' E 140°41'0 0.0
2016-Jun-27 01:30N 35°55' E 140°41'0 0.0
2016-Jun-26 22:31N 35°55' E 140°41'0 0.0
2016-Jun-26 21:31N 35°55' E 140°41'0 0.0
2016-Jun-26 20:31N 35°55' E 140°41'0 0.0
2016-Jun-26 19:31N 35°55' E 140°41'0 0.0
2016-Jun-26 18:28N 35°55' E 140°41'0 0.0
2016-Jun-26 17:31N 35°55' E 140°41'0 0.0
2016-Jun-26 16:31N 35°55' E 140°41'0 0.0
2016-Jun-26 15:31N 35°55' E 140°41'0 0.0
2016-Jun-26 14:28N 35°55' E 140°41'0 0.0
2016-Jun-26 13:10N 35°55' E 140°41'0 0.0
2016-Jun-26 12:31N 35°55' E 140°41'0 0.0
2016-Jun-26 11:31N 35°55' E 140°41'0 0.0
2016-Jun-26 10:28N 35°55' E 140°41'0 0.0
2016-Jun-26 09:31N 35°55' E 140°41'0 0.0
2016-Jun-26 08:31N 35°55' E 140°41'0 0.0
2016-Jun-26 07:31N 35°55' E 140°41'0 0.0
2016-Jun-26 05:28N 35°55' E 140°41'0 0.0
2016-Jun-26 04:16N 35°55' E 140°41'0 0.0
2016-Jun-26 03:28N 35°55' E 140°41'0 0.0
2016-Jun-26 02:16N 35°55' E 140°41'0 0.0
2016-Jun-26 00:25N 35°55' E 140°41'0 0.0
2016-Jun-25 23:16N 35°55' E 140°41'0 0.0
2016-Jun-25 22:31N 35°55' E 140°41'0 0.0
2016-Jun-25 21:28N 35°55' E 140°41'0 0.0
2016-Jun-25 20:25N 35°55' E 140°41'0 0.0
2016-Jun-25 19:16N 35°55' E 140°41'0 0.0
2016-Jun-25 18:25N 35°55' E 140°41'0 0.0
2016-Jun-25 13:31N 35°55' E 140°41'1 1.0
2016-Jun-25 12:33N 35°56' E 140°42'7 6.6
2016-Jun-25 11:33N 36°01' E 140°47'5 5.0
2016-Jun-25 10:33N 36°00' E 140°53'6 6.0
2016-Jun-25 09:32N 36°00' E 141°01'  

Dump ship's entire track history